Date,TemperatureHighF,TemperatureAvgF,TemperatureLowF,DewpointHighF,DewpointAvgF,DewpointLowF,HumidityHigh,HumidityAvg,HumidityLow,PressureMaxIn,PressureMinIn,WindSpeedMaxMPH,WindSpeedAvgMPH,GustSpeedMaxMPH,PrecipitationSumIn
2013-1-1,37.4,27.5,18.5,15.5,8.6,2.8,51,44,40,29.97,29.82,17,5,17,0.00
2013-1-2,29.8,20.8,9.0,12.4,6.9,-2.4,69,55,45,30.12,29.94,13,3,13,0.00
2013-1-3,28.4,14.9,1.8,12.2,2.3,-10.3,65,57,41,30.21,30.00,12,2,12,0.00
2013-1-4,42.3,29.8,23.7,20.6,15.3,7.9,70,55,40,30.03,29.85,25,5,25,0.00
2013-1-5,43.7,29.5,24.1,20.8,16.2,10.9,70,58,39,30.27,29.94,13,4,17,0.00
2013-1-6,49.3,33.4,25.7,25.9,22.0,15.7,83,64,39,30.21,29.94,12,2,12,0.00
2013-1-7,49.6,34.6,24.1,28.2,19.8,10.8,82,56,35,30.41,30.00,13,2,13,0.00
2013-1-8,48.6,31.2,22.6,25.7,20.5,11.7,89,66,38,30.39,30.30,11,1,11,0.00
2013-1-9,39.9,32.8,25.2,33.6,27.1,20.9,89,80,59,30.41,30.09,19,2,19,0.00
2013-1-10,53.1,37.8,29.5,31.4,20.2,15.4,85,50,32,30.59,30.15,115,3,115,0.00
2013-1-11,39.2,33.1,26.6,34.9,25.6,18.0,98,75,51,30.59,30.12,12,0,12,0.25
2013-1-12,45.3,38.4,34.9,44.5,37.7,34.0,98,97,92,30.18,30.09,8,0,229,0.04
2013-1-13,44.2,40.7,38.1,43.7,40.2,37.6,98,98,98,30.18,30.03,7,0,7,0.00
2013-1-14,60.1,43.0,35.2,52.3,35.2,22.8,98,76,42,30.36,29.91,25,2,25,0.08
2013-1-15,38.1,32.9,27.7,24.5,20.8,17.8,75,61,50,30.36,30.24,12,2,12,0.00
2013-1-16,32.9,30.4,27.9,31.0,27.6,18.0,98,90,55,30.27,29.85,12,2,12,0.00
2013-1-17,44.6,33.8,25.7,34.7,24.8,9.6,98,72,49,30.12,29.88,20,3,20,0.17
2013-1-18,34.5,23.7,17.1,10.1,5.5,-0.4,58,46,33,30.41,30.06,16,4,16,0.00
2013-1-19,48.7,35.1,22.1,23.8,16.3,2.8,66,46,36,30.39,29.85,20,5,20,0.00
2013-1-20,54.1,38.2,25.3,26.8,17.4,3.9,60,43,28,30.03,29.59,26,6,26,0.00
2013-1-21,30.4,23.6,16.7,16.4,8.1,-0.1,85,53,39,30.06,29.76,21,2,21,0.00
2013-1-22,23.9,16.4,9.1,10.2,-1.1,-12.4,64,46,34,30.12,29.76,24,6,24,0.00
2013-1-23,22.5,11.1,3.7,-1.1,-10.3,-16.7,40,37,34,30.15,30.09,12,4,16,0.00
2013-1-24,26.4,15.5,-0.2,2.5,-6.9,-20.3,38,36,34,30.33,30.09,25,7,26,0.00
2013-1-25,26.6,18.7,8.4,8.4,-0.1,-12.0,72,43,38,30.36,30.00,14,2,14,0.00
2013-1-26,35.1,20.2,5.4,12.1,3.2,-2.6,80,49,34,30.30,30.00,22,3,22,0.00
2013-1-27,42.6,22.7,9.7,12.4,3.3,-3.6,77,44,29,30.44,30.24,12,3,12,0.00
2013-1-28,32.9,29.3,19.9,32.4,22.7,3.9,98,78,49,30.44,29.94,8,2,20,0.00
2013-1-29,52.3,37.5,32.9,41.0,35.4,31.8,98,92,55,30.09,29.97,8,1,10,0.17
2013-1-30,60.4,51.6,37.2,57.4,50.5,35.5,98,96,86,30.09,29.44,18,4,18,0.08
2013-1-31,54.7,39.2,28.2,54.1,27.3,9.6,98,64,43,29.68,29.00,12,8,12,1.49
2013-2-1,33.4,25.6,19.6,10.2,4.3,-0.2,50,40,34,30.18,29.74,25,6,25,0.00
2013-2-2,31.5,19.7,14.9,14.4,7.2,2.0,78,59,35,30.24,30.00,20,4,20,0.00
2013-2-3,27.5,16.3,11.3,17.6,10.4,5.6,85,77,62,30.03,29.88,4,0,4,0.00
2013-2-4,28.6,21.8,21.0,8.4,4.0,1.9,52,46,42,29.91,29.88,8,0,8,0.00
2013-2-5,26.8,24.0,20.7,22.3,15.9,4.1,86,71,52,29.91,29.82,8,0,8,0.00
2013-2-6,43.3,29.5,21.2,22.9,14.3,0.4,92,56,35,30.33,29.85,22,3,22,0.00
2013-2-7,39.0,23.5,13.6,12.7,4.5,-2.9,55,44,34,30.47,30.30,12,1,12,0.00
2013-2-8,32.4,28.4,25.0,28.9,22.5,7.4,98,79,52,30.36,29.65,29,6,29,0.00
2013-2-9,42.3,26.1,11.3,25.3,11.2,-6.4,97,58,28,30.33,29.68,35,5,35,0.00
2013-2-10,47.8,20.0,0.3,15.9,-1.1,-16.6,60,40,27,30.44,30.24,11,2,11,0.04
2013-2-11,41.0,31.4,21.9,37.4,24.2,2.0,98,76,45,30.27,29.62,13,1,13,0.25
2013-2-12,42.8,36.5,34.0,35.3,27.3,18.7,98,71,42,29.91,29.65,16,4,16,0.00
2013-2-13,54.7,37.4,25.5,26.2,19.3,13.5,79,49,31,29.91,29.65,12,1,12,0.00
2013-2-14,54.1,35.8,24.6,33.3,22.2,16.7,92,61,32,30.00,29.68,12,1,12,0.00
2013-2-15,57.7,37.8,27.7,29.8,21.6,16.6,74,53,34,30.00,29.88,16,1,17,0.00
2013-2-16,42.8,32.2,26.8,29.9,20.3,7.3,92,64,41,30.00,29.71,12,3,12,0.04
2013-2-17,36.0,23.7,13.5,8.2,1.8,-5.4,44,38,30,29.91,29.59,35,9,35,0.00
2013-2-18,38.1,24.2,13.5,10.2,2.5,-5.0,46,39,31,30.18,29.91,34,6,34,0.00
2013-2-19,43.2,32.8,20.7,35.4,21.4,4.3,98,66,40,30.15,29.59,20,3,20,42.04
2013-2-20,36.0,28.0,22.1,22.1,10.2,4.2,60,47,40,29.94,29.59,24,8,24,0.00
2013-2-21,40.6,26.3,18.9,14.5,8.4,4.7,58,47,35,30.30,29.88,22,7,22,0.00
2013-2-22,37.8,28.0,15.1,20.9,14.3,6.3,76,57,42,30.36,30.24,8,1,8,42.17
2013-2-23,38.8,36.3,32.7,37.3,34.8,20.9,98,94,69,30.27,29.82,12,1,12,0.08
2013-2-24,50.5,35.7,27.1,39.7,29.2,16.4,98,79,49,29.97,29.71,20,2,20,0.00
2013-2-25,51.8,36.0,23.9,27.6,20.5,16.1,80,55,37,30.24,29.94,12,1,12,0.00
2013-2-26,46.8,36.5,28.0,28.8,22.8,18.5,86,59,39,30.33,29.97,26,4,26,0.04
2013-2-27,42.6,36.1,32.5,41.9,35.3,22.9,98,97,86,30.03,29.56,26,5,26,0.71
2013-2-28,51.6,39.8,33.4,43.0,31.5,24.8,98,75,45,29.62,29.53,9,1,9,0.00
2013-3-1,48.7,33.1,29.1,32.8,25.5,18.9,93,75,44,29.76,29.59,15,1,15,0.00
2013-3-2,42.3,34.1,28.6,21.2,19.1,17.6,72,54,42,29.76,29.65,13,2,13,0.00
2013-3-3,44.6,31.1,25.9,20.1,14.5,11.7,64,50,38,29.74,29.62,20,3,20,0.00
2013-3-4,45.7,28.6,25.2,20.9,13.9,10.9,66,54,37,29.88,29.71,24,5,24,0.00
2013-3-5,53.8,36.7,24.4,27.1,20.1,14.7,69,52,36,30.03,29.85,22,4,22,0.00
2013-3-6,41.2,35.9,34.3,34.3,23.3,20.7,88,60,50,30.03,29.94,35,7,38,0.04
2013-3-7,39.2,34.0,30.7,32.0,26.7,20.4,98,77,49,30.15,30.00,32,5,32,0.00
2013-3-8,41.7,34.3,29.8,34.0,30.7,28.5,98,87,69,30.24,30.03,16,2,16,0.08
2013-3-22,45.1,33.4,21.7,31.9,16.1,8.8,76,49,38,29.85,29.68,40,5,40,0.12
2013-3-23,46.9,36.0,28.8,22.4,17.0,11.4,60,46,34,29.91,29.76,21,6,21,0.08
2013-3-24,51.3,35.7,24.4,23.0,16.8,9.9,67,47,31,29.91,26.46,18,3,18,0.08
2013-3-25,49.5,39.1,32.7,24.3,20.3,17.5,59,47,36,29.71,29.41,24,5,24,0.00
2013-3-26,55.8,40.8,31.6,27.6,21.8,14.7,64,48,32,29.85,29.56,24,3,24,0.00
2013-3-27,55.9,40.6,27.9,28.8,21.5,14.8,64,48,31,29.97,29.82,26,4,26,0.00
2013-3-28,51.1,37.0,29.1,28.6,24.2,20.6,77,61,39,30.09,29.94,16,1,16,0.00
2013-3-29,59.5,42.5,30.2,29.3,23.3,19.9,70,48,29,30.15,30.06,22,2,22,0.00
2013-3-30,64.0,45.3,31.1,30.1,23.3,12.8,80,46,24,30.18,30.06,22,3,22,0.00
2013-3-31,59.4,43.7,28.6,39.9,25.3,13.9,90,50,28,30.15,29.68,22,3,22,0.12
2013-4-1,60.4,44.1,32.5,46.8,32.0,9.2,98,67,33,29.91,29.59,46,4,46,0.13
2013-4-2,46.6,34.4,26.8,15.7,11.4,6.3,58,39,29,30.06,29.88,29,6,29,0.00
2013-4-3,52.9,36.9,28.2,19.4,11.8,5.9,46,36,27,30.27,30.03,29,7,29,0.00
2013-4-4,61.3,42.0,25.2,24.6,16.2,6.6,52,36,24,30.36,30.03,24,4,24,0.00
2013-4-5,67.5,48.1,34.5,28.1,19.8,13.5,52,34,22,30.06,29.71,29,4,29,0.00
2013-4-6,61.9,41.6,30.6,18.2,11.5,3.9,48,31,16,30.27,29.94,26,5,26,0.00
2013-4-7,65.5,47.7,35.1,39.8,26.6,11.4,75,46,25,30.27,29.94,26,5,26,0.00
2013-4-8,78.8,54.4,39.4,42.0,37.0,32.3,93,59,24,30.06,29.94,20,2,20,0.00
2013-4-9,81.7,65.8,49.8,48.8,40.0,30.5,85,42,22,29.97,29.88,16,4,21,0.00
2013-4-10,68.9,57.6,48.2,55.6,48.1,36.4,98,73,47,29.97,29.79,30,3,30,0.17
2013-4-11,59.7,49.0,37.2,54.5,35.1,20.8,98,62,37,30.12,29.82,115,6,115,0.00
2013-4-12,41.5,39.1,37.0,40.2,35.1,26.4,98,86,67,30.09,29.74,22,4,22,0.29
2013-4-13,62.1,47.0,35.2,40.7,33.5,26.4,98,65,35,29.94,29.76,19,3,19,0.04
2013-4-14,60.4,46.7,37.2,33.0,25.9,19.9,72,46,30,30.24,29.94,22,4,22,0.00
2013-4-15,70.3,50.3,34.7,33.2,26.5,20.2,62,41,25,30.39,30.21,21,3,229,0.00
2013-4-16,70.9,55.2,43.3,56.9,42.0,23.3,94,62,41,30.39,30.12,26,3,26,0.04
2013-4-17,76.8,59.8,47.1,56.2,39.4,27.3,97,54,23,30.30,30.12,18,3,18,0.04
2013-4-18,64.4,52.1,42.1,51.1,36.2,27.1,93,57,34,30.39,30.12,26,4,26,0.00
2013-4-19,77.5,62.1,50.7,63.8,56.5,47.2,98,83,55,30.18,29.56,26,5,26,0.54
2013-4-20,64.0,47.2,37.6,49.6,35.3,15.5,98,70,26,30.36,29.68,24,4,25,0.25
2013-4-21,61.9,44.2,29.3,25.7,18.3,12.6,53,36,24,30.65,30.33,20,4,20,0.00
2013-4-22,67.6,47.2,34.3,30.8,23.9,15.9,70,42,23,30.71,30.53,24,4,24,0.00
2013-4-23,52.5,42.9,32.9,35.9,31.4,25.2,79,64,51,30.53,30.15,18,4,18,0.00
2013-4-24,82.4,56.1,33.6,50.5,41.2,32.5,98,64,28,30.15,29.76,19,3,19,0.00
2013-4-25,74.1,56.2,42.4,54.7,28.9,17.4,89,38,19,30.27,29.79,21,5,21,0.00
2013-4-26,74.5,51.9,37.0,34.6,27.3,19.5,62,40,22,30.41,30.24,18,3,18,0.00
2013-4-27,77.9,56.0,35.1,34.0,27.0,19.7,59,35,20,30.47,30.24,20,2,20,0.00
2013-4-28,82.9,59.4,40.8,40.2,32.3,24.0,73,39,21,30.30,30.15,22,3,22,0.00
2013-4-29,57.4,53.4,50.4,47.8,41.1,24.0,80,64,34,30.27,30.18,15,2,15,0.04
2013-4-30,80.4,60.2,34.2,44.1,35.4,0.0,72,44,21,30.36,30.21,18,2,18,0.00
2013-5-1,85.3,59.7,38.7,38.7,31.0,20.6,70,37,16,30.47,30.30,18,2,18,0.00
2013-5-2,88.9,64.1,41.9,46.8,38.2,30.6,91,45,19,30.47,30.27,20,2,20,0.00
2013-5-3,81.1,62.3,48.0,38.1,33.7,28.8,59,36,20,30.47,30.30,20,4,20,0.00
2013-5-4,85.3,60.2,40.5,47.7,39.1,33.1,90,52,20,30.39,30.18,115,3,115,0.00
2013-5-5,79.9,43.6,38.7,46.8,37.9,34.1,96,82,21,30.33,30.18,12,1,12,0.00
2013-5-6,74.1,56.3,39.0,48.1,43.6,36.0,92,65,32,30.27,30.12,12,2,12,0.00
2013-5-7,85.6,68.6,48.7,54.2,49.9,46.5,92,58,26,30.18,30.12,6,1,12,0.00
2013-5-8,66.7,61.3,54.7,65.3,59.6,53.0,98,94,83,30.18,29.94,24,2,24,0.95
2013-5-9,77.2,59.0,51.3,62.5,54.2,49.5,98,86,45,30.03,29.88,13,0,13,0.21
2013-5-10,87.6,65.9,51.4,62.2,52.7,48.1,98,69,31,30.03,29.82,11,0,11,0.04
2013-5-11,71.2,63.5,60.1,68.2,60.8,53.0,98,91,71,29.85,29.68,8,0,8,0.42
2013-5-12,72.5,58.2,44.2,59.0,30.8,22.0,98,39,23,29.91,29.62,21,4,21,0.04
2013-5-13,60.4,46.5,34.9,32.0,27.7,24.8,78,50,32,30.09,29.88,15,2,15,0.00
2013-5-14,68.2,48.1,32.2,41.5,27.4,19.6,98,52,23,30.15,30.00,12,1,12,0.00
2013-5-15,73.0,44.5,36.3,51.8,35.7,23.0,88,73,36,30.09,29.68,10,0,10,0.00
2013-5-16,91.9,69.2,50.9,59.4,44.0,32.9,98,51,18,29.85,29.68,16,1,16,0.00
2013-5-17,83.5,62.8,50.2,44.2,37.5,30.6,70,41,23,30.21,29.79,16,1,16,0.00
2013-5-18,77.0,58.7,44.6,51.6,45.1,39.6,92,65,32,30.36,30.18,13,1,13,0.00
2013-5-19,59.7,56.7,53.8,58.3,54.8,49.2,98,93,82,30.41,30.18,12,1,12,0.25
2013-5-20,93.7,70.8,56.3,66.9,59.9,55.8,98,73,34,30.21,29.94,12,0,12,0.00
2013-5-21,100.6,77.7,61.5,70.9,64.4,58.8,98,69,30,29.97,29.76,12,1,12,0.00
2013-5-22,92.1,73.6,64.6,71.2,65.2,60.9,95,77,42,29.94,29.76,19,2,19,0.00
2013-5-23,75.2,68.0,62.8,70.5,65.1,58.4,98,91,69,29.91,29.76,10,0,10,0.70
2013-5-24,65.7,54.2,43.5,64.5,53.2,43.0,98,97,84,29.97,29.71,10,1,10,0.96
2013-5-25,50.9,46.6,43.5,50.4,41.7,35.5,98,84,61,30.03,29.94,22,3,22,0.25
2013-5-26,68.9,54.1,43.7,41.3,35.1,27.3,76,51,32,30.21,29.97,24,4,24,0.00
2013-5-27,86.5,60.6,41.5,43.0,35.5,30.1,75,45,19,30.33,30.12,12,1,12,0.00
2013-5-28,72.1,57.2,46.6,56.3,47.3,34.1,97,73,34,30.27,30.12,11,0,11,0.16
2013-5-29,92.3,68.5,56.7,71.7,62.6,56.0,98,84,46,30.15,30.03,12,0,12,0.08
2013-5-30,101.1,79.4,64.2,69.6,63.9,58.1,98,66,29,30.18,30.06,10,0,10,0.00
2013-5-31,104.0,79.1,65.3,68.3,60.9,56.0,91,59,22,30.15,29.94,7,0,7,0.00
2013-6-1,102.7,79.7,62.2,69.3,62.9,55.7,92,61,26,30.00,29.82,11,1,11,0.00
2013-6-2,96.4,88.6,70.9,70.6,65.3,60.9,90,48,37,29.88,29.74,15,2,15,0.00
2013-6-3,87.1,73.8,56.7,69.0,57.1,44.8,98,58,36,29.88,29.76,13,1,13,1.21
2013-6-4,84.7,55.9,46.6,48.4,40.3,30.5,86,62,22,30.15,29.85,11,0,11,0.00
2013-6-5,86.5,57.2,46.0,47.9,39.8,32.8,79,55,26,30.21,30.12,9,0,9,0.00
2013-6-6,75.2,61.0,50.9,57.5,49.6,39.9,98,69,41,30.18,30.03,19,2,19,0.12
2013-6-7,60.4,58.3,56.3,59.9,57.7,55.8,98,98,96,30.03,29.74,16,2,18,1.54
2013-6-8,83.8,68.0,55.6,63.5,58.3,54.9,98,74,47,30.06,29.71,3,0,5,0.20
2013-6-9,93.4,76.8,58.5,61.3,52.8,47.2,98,47,28,30.21,30.06,12,1,12,0.00
2013-6-10,72.5,63.0,59.0,64.8,60.1,53.5,98,91,68,30.18,29.91,19,2,19,1.04
2013-6-11,82.2,64.3,59.9,70.2,58.8,53.5,98,84,63,29.91,29.65,18,2,18,0.58
2013-6-12,76.8,61.4,56.7,56.9,51.9,46.3,88,72,38,29.85,29.71,13,2,13,0.00
2013-6-13,59.2,55.9,52.7,58.6,54.4,51.1,98,95,82,29.82,29.59,19,2,19,1.37
2013-6-14,78.6,53.8,50.9,60.0,52.2,50.4,98,95,46,29.94,29.62,25,2,25,0.54
2013-6-15,90.7,75.9,54.0,60.6,48.6,42.6,98,41,24,30.09,29.94,15,2,15,0.54
2013-6-16,83.8,64.6,55.4,61.7,54.1,46.0,88,70,41,30.00,29.76,14,0,14,0.54
2013-6-17,96.8,74.3,59.2,68.8,59.1,49.4,98,66,25,29.94,29.79,13,1,13,0.54
2013-6-18,90.3,67.7,58.8,65.2,59.0,51.0,97,77,38,29.97,29.88,25,2,25,0.54
2013-6-19,89.1,68.0,54.5,51.3,46.7,40.8,81,51,24,30.18,29.94,26,3,26,0.54
2013-6-20,92.1,68.8,49.8,58.4,50.0,44.9,95,58,25,30.30,30.15,12,1,12,0.54
2013-6-21,89.8,61.0,56.3,59.9,54.4,52.1,93,80,31,30.30,30.18,15,0,15,0.04
2013-6-22,93.0,80.0,68.0,62.0,59.0,55.9,70,51,31,30.27,30.09,7,2,7,0.00
2013-6-23,101.3,86.1,66.4,66.9,63.1,56.7,91,51,26,30.18,30.00,16,1,16,0.00
2013-6-24,102.4,81.2,70.9,71.0,65.7,56.3,95,66,27,30.06,29.88,13,1,13,0.00
2013-6-25,98.6,85.1,73.0,74.9,67.6,62.2,87,58,35,29.94,29.74,15,1,15,0.00
2013-6-26,86.4,74.9,67.5,71.2,67.5,64.7,98,79,54,29.85,29.71,12,1,12,0.21
2013-6-27,95.9,75.7,64.6,74.2,67.5,63.0,98,79,38,29.85,29.50,18,2,20,0.41
2013-6-28,94.8,75.3,65.8,74.5,66.9,59.3,98,79,35,29.59,29.41,21,2,21,0.91
2013-6-29,93.4,67.8,64.2,71.8,64.2,58.7,98,90,36,29.68,29.47,7,0,7,0.00
2013-6-30,88.2,70.5,64.2,71.9,65.7,63.2,98,87,56,29.85,29.65,17,1,17,0.00
2013-11-30,30.6,30.3,30.0,15.6,15.1,14.3,54,53,51,30.27,30.24,4,1,4,13.49
2013-12-1,44.6,34.4,24.4,25.8,20.1,0.0,73,56,45,30.24,29.74,7,1,7,1.53
2013-12-2,44.2,34.8,28.8,35.7,28.4,20.9,94,78,66,29.88,29.71,6,0,6,1.53
2013-12-3,50.0,33.0,26.8,38.8,29.0,24.5,98,86,49,29.85,29.71,7,1,7,1.53
2013-12-4,53.4,37.7,26.8,39.9,29.2,24.2,98,74,41,30.00,29.79,9,1,9,1.53
2013-12-5,51.4,46.4,41.2,50.9,44.0,30.5,98,92,69,30.00,29.76,6,0,6,1.53
2013-12-6,52.3,42.6,32.9,51.8,41.7,32.4,98,97,93,30.03,29.71,22,2,22,1.53
2013-12-7,42.4,32.8,25.0,37.2,23.0,10.4,98,71,39,30.39,29.97,18,2,18,1.53
2013-12-8,31.5,26.0,19.8,21.6,12.5,7.3,80,57,50,30.44,30.27,10,2,10,1.53
2013-12-9,33.3,30.5,26.4,32.2,29.3,14.6,98,95,81,30.30,29.76,14,3,14,1.53
2013-12-10,33.3,28.5,18.0,32.0,26.4,15.2,98,92,76,29.88,29.68,10,3,10,1.53
2013-12-11,32.7,23.5,19.0,16.4,13.2,11.4,79,65,47,30.12,29.82,12,4,12,1.53
2013-12-12,27.9,18.4,12.7,12.4,3.7,-3.2,75,53,40,30.15,29.94,15,4,15,1.53
2013-12-13,33.1,24.0,14.9,12.3,6.4,-1.0,59,47,41,30.18,29.88,21,6,21,1.53
2013-12-14,23.5,17.3,13.6,13.3,8.5,5.6,87,68,51,30.33,29.74,15,5,15,1.53
2013-12-15,42.3,28.3,16.9,31.3,19.8,9.9,96,73,50,29.91,29.35,24,5,24,1.53
2013-12-16,34.5,22.0,10.4,13.9,3.8,-6.7,58,45,37,30.06,29.59,22,5,22,1.53
2013-12-17,19.6,14.2,4.1,14.2,3.7,-12.5,86,64,45,30.06,29.79,8,2,8,1.53
2013-12-18,39.4,23.6,9.3,20.9,13.0,4.8,90,65,40,29.97,29.76,16,3,16,1.53
2013-12-19,47.5,32.6,19.8,22.4,16.4,9.4,73,52,36,30.00,29.79,18,4,18,1.53
2013-12-20,54.7,40.9,31.8,28.0,22.2,17.1,59,48,35,29.94,29.74,15,3,15,1.53
2013-12-21,63.1,46.3,35.8,43.5,32.8,22.5,94,61,37,29.82,29.59,16,3,16,1.53
2013-12-22,66.2,58.4,42.8,61.7,53.5,39.0,98,85,60,29.79,29.59,36,5,36,1.53
2013-12-23,59.4,47.6,35.8,55.8,45.9,24.8,98,94,64,30.03,29.74,14,2,14,1.53
2013-12-24,39.0,30.0,19.8,24.3,18.3,1.9,85,62,44,30.18,29.88,19,3,19,1.53
2013-12-25,34.2,19.5,11.1,8.0,2.2,-3.9,57,47,36,30.36,29.88,28,3,28,1.53
2013-12-26,33.6,25.3,19.6,21.4,15.5,5.6,85,66,54,30.27,29.94,14,2,14,1.53
2013-12-27,38.1,28.0,19.4,19.7,16.5,14.1,87,64,41,30.18,30.06,12,4,12,1.53
2013-12-28,52.7,36.0,25.2,26.5,20.1,15.4,75,54,35,30.12,29.85,15,4,15,1.53
2013-12-29,43.0,37.8,34.5,38.0,28.8,19.6,98,72,48,29.91,29.32,19,3,19,1.53
2013-12-30,38.8,30.3,13.5,36.9,18.6,0.2,98,65,40,30.06,29.44,24,4,24,1.53
2013-12-31,29.1,20.0,11.8,20.9,6.2,0.3,84,55,43,30.09,29.82,12,4,14,0.00
2014-1-1,34.7,23.2,15.1,15.9,7.5,0.2,69,51,40,30.21,30.09,15,4,15,1.53
2014-1-2,25.5,14.6,6.8,14.5,6.5,-1.5,76,69,60,30.15,29.56,24,7,24,1.53